createdAt,value
2022-11-29T00:00:35.783Z,10.15
2022-11-29T00:06:08.906Z,8.60
2022-11-29T00:12:00.628Z,9.10
2022-11-29T00:17:31.792Z,9.70
2022-11-29T00:23:03.033Z,9.23
2022-11-29T00:28:35.609Z,9.18
2022-11-29T00:34:09.991Z,8.98
2022-11-29T00:39:41.487Z,9.63
2022-11-29T00:45:12.432Z,9.32
2022-11-29T00:50:43.200Z,9.30
2022-11-29T00:56:14.721Z,9.95
2022-11-29T01:01:46.062Z,9.57
2022-11-29T01:07:17.706Z,9.65
2022-11-29T01:12:49.036Z,9.40
2022-11-29T01:18:20.182Z,10.05
2022-11-29T01:23:52.728Z,9.45
2022-11-29T01:29:25.067Z,9.32
2022-11-29T01:34:56.248Z,9.70
2022-11-29T01:40:27.208Z,9.63
2022-11-29T01:45:58.682Z,9.60
2022-11-29T01:51:31.128Z,9.60
2022-11-29T01:57:03.783Z,9.30
2022-11-29T02:02:38.903Z,9.55
2022-11-29T02:08:11.708Z,9.43
2022-11-29T02:13:48.124Z,8.20
2022-11-29T02:19:39.277Z,9.02
2022-11-29T02:25:35.344Z,9.25
2022-11-29T02:31:27.867Z,9.23
2022-11-29T02:37:11.558Z,9.02
2022-11-29T02:48:38.929Z,9.52
2022-11-29T02:54:24.759Z,8.65
2022-11-29T03:00:01.710Z,9.65
2022-11-29T03:05:45.086Z,9.77
2022-11-29T03:11:34.344Z,10.10
2022-11-29T03:17:26.694Z,9.55
2022-11-29T03:23:06.477Z,10.02
2022-11-29T03:28:49.633Z,9.23
2022-11-29T03:34:38.909Z,9.73
2022-11-29T03:40:18.680Z,9.80
2022-11-29T03:45:56.570Z,8.82
2022-11-29T03:51:52.880Z,9.20
2022-11-29T03:57:34.814Z,8.90
2022-11-29T04:03:32.795Z,9.15
2022-11-29T04:09:07.144Z,9.65
2022-11-29T04:15:02.797Z,9.80
2022-11-29T04:20:51.749Z,9.68
2022-11-29T04:26:56.599Z,10.57
2022-11-29T04:32:51.718Z,9.27
2022-11-29T04:38:48.059Z,10.30
2022-11-29T04:44:54.375Z,9.18
2022-11-29T04:50:27.593Z,9.07
2022-11-29T04:56:01.161Z,9.73
2022-11-29T05:01:47.545Z,9.45
2022-11-29T05:07:18.867Z,9.75
2022-11-29T05:13:31.400Z,9.13
2022-11-29T05:19:40.032Z,10.13
2022-11-29T05:25:20.435Z,9.43
2022-11-29T05:30:55.315Z,8.85
2022-11-29T05:36:39.515Z,10.00
2022-11-29T05:42:42.654Z,9.18
2022-11-29T05:48:13.675Z,9.85
2022-11-29T05:54:12.041Z,9.30
2022-11-29T05:59:44.240Z,11.00
2022-11-29T06:05:26.240Z,9.60
2022-11-29T06:11:11.585Z,9.38
2022-11-29T06:16:57.043Z,9.80
2022-11-29T06:23:02.862Z,10.05
2022-11-29T06:28:52.298Z,9.13
2022-11-29T06:34:31.947Z,8.80
2022-11-29T06:40:03.603Z,8.73
2022-11-29T06:45:34.783Z,9.18
2022-11-29T06:51:23.945Z,9.18
2022-11-29T06:57:24.884Z,9.82
2022-11-29T07:03:01.833Z,9.52
2022-11-29T07:08:33.141Z,9.07
2022-11-29T07:14:04.649Z,9.43
2022-11-29T07:19:46.256Z,10.02
2022-11-29T07:25:22.289Z,9.18
2022-11-29T07:31:44.408Z,9.15
2022-11-29T07:37:48.029Z,8.52
2022-11-29T07:43:37.819Z,8.27
2022-11-29T07:49:12.118Z,8.82
2022-11-29T07:54:44.297Z,9.18
2022-11-29T08:00:16.328Z,8.55
2022-11-29T08:05:47.874Z,9.38
2022-11-29T08:11:18.728Z,9.60
2022-11-29T08:16:49.883Z,8.55
2022-11-29T08:22:21.736Z,8.98
2022-11-29T08:27:54.768Z,8.85
2022-11-29T08:33:26.023Z,8.50
2022-11-29T08:39:03.508Z,8.02
2022-11-29T08:44:37.366Z,8.23
2022-11-29T08:50:15.053Z,8.50
2022-11-29T08:55:46.848Z,8.32
2022-11-29T09:01:19.326Z,8.52
2022-11-29T09:06:50.602Z,8.30
2022-11-29T09:12:21.720Z,8.73
2022-11-29T09:17:52.877Z,7.78
2022-11-29T09:23:24.062Z,9.07
2022-11-29T09:29:01.455Z,8.25
2022-11-29T09:34:33.008Z,9.48
2022-11-29T09:40:05.144Z,9.15
2022-11-29T09:45:42.815Z,8.75
2022-11-29T09:51:24.484Z,7.75
2022-11-29T09:56:55.974Z,7.78
2022-11-29T10:02:34.719Z,8.05
2022-11-29T10:08:16.129Z,8.45
2022-11-29T10:13:52.598Z,8.25
2022-11-29T10:19:41.516Z,7.80
2022-11-29T10:25:21.441Z,8.57
2022-11-29T10:30:57.310Z,7.75
2022-11-29T10:36:37.179Z,7.28
2022-11-29T10:42:47.432Z,7.82
2022-11-29T10:48:21.001Z,8.25
2022-11-29T10:59:26.548Z,8.25
2022-11-29T11:04:59.393Z,8.63
2022-11-29T11:10:31.070Z,8.98
2022-11-29T11:16:11.831Z,8.15
2022-11-29T11:21:42.688Z,7.97
2022-11-29T11:27:13.850Z,8.45
2022-11-29T11:33:06.918Z,8.50
2022-11-29T11:38:58.075Z,7.88
2022-11-29T11:44:48.885Z,8.32
2022-11-29T11:50:35.174Z,8.02
2022-11-29T11:56:08.833Z,8.23
2022-11-29T12:07:38.700Z,7.80
2022-11-29T12:13:26.889Z,8.60
2022-11-29T12:19:05.422Z,8.93
2022-11-29T12:24:40.039Z,8.73
2022-11-29T12:30:14.174Z,8.93
2022-11-29T12:35:52.749Z,8.25
2022-11-29T12:41:41.679Z,8.05
2022-11-29T12:47:46.299Z,8.63
2022-11-29T12:53:34.477Z,8.50
2022-11-29T12:59:15.570Z,8.97
2022-11-29T13:05:04.178Z,8.40
2022-11-29T13:10:53.594Z,9.35
2022-11-29T13:16:32.730Z,8.27
2022-11-29T13:22:21.841Z,8.70
2022-11-29T13:28:02.750Z,8.48
2022-11-29T13:33:55.655Z,9.15
2022-11-29T13:40:06.246Z,9.02
2022-11-29T13:46:08.814Z,9.32
2022-11-29T13:51:41.760Z,9.00
2022-11-29T13:57:13.274Z,8.48
2022-11-29T14:02:45.154Z,9.25
2022-11-29T14:08:42.478Z,9.48
2022-11-29T14:19:52.965Z,8.55
2022-11-29T14:25:50.578Z,9.77
2022-11-29T14:31:49.899Z,9.90
2022-11-29T14:37:51.036Z,8.52
2022-11-29T14:43:34.631Z,9.85
2022-11-29T14:49:06.067Z,9.27
2022-11-29T14:54:54.677Z,10.80
2022-11-29T15:00:28.946Z,9.80
2022-11-29T15:11:52.794Z,10.75
2022-11-29T15:17:37.632Z,10.98
2022-11-29T15:23:15.216Z,10.38
2022-11-29T15:28:46.383Z,10.52
2022-11-29T15:34:43.565Z,10.38
2022-11-29T15:40:24.199Z,11.20
2022-11-29T15:45:57.067Z,11.07
2022-11-29T15:51:31.915Z,11.50
2022-11-29T15:57:13.440Z,10.32
2022-11-29T16:03:04.646Z,11.20
2022-11-29T16:08:42.179Z,10.38
2022-11-29T16:14:27.000Z,10.80
2022-11-29T16:20:19.546Z,11.43
2022-11-29T16:26:04.241Z,10.52
2022-11-29T16:37:08.355Z,11.68
2022-11-29T16:42:40.911Z,12.15
2022-11-29T16:48:25.696Z,10.93
2022-11-29T16:59:28.383Z,11.00
2022-11-29T17:04:59.819Z,11.32
2022-11-29T17:10:32.457Z,11.48
2022-11-29T17:16:03.697Z,11.02
2022-11-29T17:21:35.314Z,12.25
2022-11-29T17:27:06.835Z,12.05
2022-11-29T17:32:38.414Z,11.77
2022-11-29T17:38:09.567Z,10.98
2022-11-29T17:43:40.903Z,11.75
2022-11-29T17:49:12.550Z,12.38
2022-11-29T17:54:43.562Z,12.43
2022-11-29T18:00:16.469Z,12.13
2022-11-29T18:05:47.811Z,11.68
2022-11-29T18:11:24.906Z,12.15
2022-11-29T18:16:56.626Z,11.57
2022-11-29T18:22:27.887Z,12.48
2022-11-29T18:27:58.908Z,11.80
2022-11-29T18:33:30.310Z,11.15
2022-11-29T18:39:10.519Z,12.07
2022-11-29T18:44:41.709Z,11.50
2022-11-29T18:50:13.209Z,11.48
2022-11-29T18:55:44.339Z,12.00
2022-11-29T19:01:17.635Z,11.80
2022-11-29T19:06:49.327Z,11.32
2022-11-29T19:12:20.699Z,11.65
2022-11-29T19:17:53.142Z,12.27
2022-11-29T19:23:24.483Z,11.90
2022-11-29T19:28:55.491Z,11.07
2022-11-29T19:34:26.639Z,11.73
2022-11-29T19:39:58.154Z,11.82
2022-11-29T19:45:29.541Z,12.38
2022-11-29T19:51:00.971Z,11.45
2022-11-29T19:56:32.895Z,11.63
2022-11-29T20:02:04.216Z,10.93
2022-11-29T20:07:35.707Z,10.60
2022-11-29T20:13:08.131Z,11.05
2022-11-29T20:18:44.617Z,11.60
2022-11-29T20:24:20.193Z,12.65
2022-11-29T20:29:51.035Z,11.68
2022-11-29T20:35:22.713Z,11.43
2022-11-29T20:41:03.121Z,11.23
2022-11-29T20:46:35.021Z,11.52
2022-11-29T20:52:07.666Z,11.45
2022-11-29T20:57:38.911Z,11.13
2022-11-29T21:03:14.342Z,11.45
2022-11-29T21:08:45.557Z,11.68
2022-11-29T21:14:17.267Z,10.80
2022-11-29T21:19:48.927Z,11.80
2022-11-29T21:25:45.960Z,10.43
2022-11-29T21:31:18.461Z,11.75
2022-11-29T21:36:56.945Z,11.50
2022-11-29T21:42:28.097Z,11.07
2022-11-29T21:48:01.916Z,12.50
2022-11-29T21:53:37.444Z,10.82
2022-11-29T21:59:08.823Z,11.57
2022-11-29T22:04:40.069Z,11.82
2022-11-29T22:10:13.492Z,10.80
2022-11-29T22:15:45.267Z,10.98
2022-11-29T22:21:16.614Z,10.95
2022-11-29T22:26:49.055Z,11.52
2022-11-29T22:32:20.039Z,10.85
2022-11-29T22:37:51.241Z,11.43
2022-11-29T22:43:22.294Z,11.55
2022-11-29T22:48:55.804Z,11.80
2022-11-29T22:54:27.112Z,11.07
2022-11-29T22:59:58.305Z,10.98
2022-11-29T23:05:32.272Z,10.50
2022-11-29T23:11:05.125Z,9.93
2022-11-29T23:16:36.441Z,11.02
2022-11-29T23:22:07.807Z,10.68
2022-11-29T23:27:38.812Z,9.75
2022-11-29T23:33:10.226Z,10.75
2022-11-29T23:38:41.579Z,10.50
2022-11-29T23:44:12.815Z,10.35
2022-11-29T23:49:43.818Z,10.50
2022-11-29T23:55:15.174Z,10.55
